Impacts METAR Board
IDs:

KMDW - Chicago/Midway Intl, IL, US

Updated at: 1800 UTC 23 Oct 2018
Potential Impact None Slight Moderate High
Time 23/06Z 23/07Z 23/08Z 23/09Z 23/10Z 23/11Z 23/12Z 23/13Z 23/14Z 23/15Z 23/16Z 23/17Z 23/18Z
Temp47 47 46 46 44 42 42 42 45 47 49 51 53
Dewpt32 31 30 29 28 28 27 28 29 32 34 34 33
Altim30.10 30.11 30.12 30.14 30.16 30.18 30.20 30.23 30.26 30.28 30.29 30.30 30.30
VIS10 10 10 10 10 10 10 10 10 10 10 10 10
CIG-- -- -- -- -- -- -- -- -- -- -- -- --
CoverCLRCLRCLRCLRCLRCLRCLRFEWFEWFEWFEWFEWFEW
FltCatVFRVFRVFRVFRVFRVFRVFRVFRVFRVFRVFRVFRVFR
WX--------------------------
WDir280290310310310330330320350360103500
WSpd5 6 7 9 8 8 10 8 11 13 8 8 4
WGst-- -- -- -- -- -- -- -- -- -- -- 16 --
Raw hourly METARs
KMDW 230553Z 28005KT 10SM CLR 08/00 A3010 RMK AO2 SLP193 T00830000 10139 20083 401720033 51015
KMDW 230653Z 29006KT 10SM CLR 08/M01 A3011 RMK AO2 SLP195 T00831006
KMDW 230753Z 31007KT 10SM CLR 08/M01 A3012 RMK AO2 SLP201 T00781011
KMDW 230853Z 31009KT 10SM CLR 08/M02 A3014 RMK AO2 SLP207 T00781017 53015
KMDW 230953Z 31008KT 10SM CLR 07/M02 A3016 RMK AO2 SLP214 T00671022
KMDW 231053Z 33008KT 10SM CLR 06/M02 A3018 RMK AO2 SLP222 T00561022
KMDW 231153Z 33010KT 10SM CLR 06/M03 A3020 RMK AO2 SLP229 T00561028 10089 20056 53020
KMDW 231253Z 32008KT 10SM FEW033 06/M02 A3023 RMK AO2 SLP240 T00561022
KMDW 231353Z 35011KT 10SM FEW035 07/M02 A3026 RMK AO2 SLP251 T00721017
KMDW 231453Z 36013KT 10SM FEW035 08/00 A3028 RMK AO2 SLP256 T00830000 51026
KMDW 231553Z 01008KT 10SM FEW035 09/01 A3029 RMK AO2 SLP260 T00940011
KMDW 231653Z 35008G16KT 10SM FEW035 11/01 A3030 RMK AO2 SLP263 T01060011
KMDW 231753Z VRB04KT 10SM FEW040 12/01 A3030 RMK AO2 SLP261 T01170006 10117 20050 50005



Page loaded:  18:03 UTC  |   11:03 AM Pacific  |   12:03 PM Mountain  |   01:03 PM Central  |   02:03 PM Eastern

 

ADVISORIES

FORECASTS

FORECASTS

OBSERVATIONS

USER TOOLS

ABOUT US